Huvudsida
METAR-TAF:

METAR-TAF

Flygplatser :

Conakry International Airport

Conakry, Guinea

latitud: 09-34N, longitud: 013-37W, höjd: 26 m

Aktuellt väderrapport

Denna rapport gjordes för 21 minuter sedan, klockan 01:00 UTC
Stilla vind
Temperatur 25°C
Fuktighet 89%
Tryck 1013 hPa
Sikt 10 km eller mer
Inga moln under 1 500 m eller inga cumulonimbus

METAR: GUCY 230100Z 00000KT CAVOK 25/23 Q1013 NOSIG

Tid: 01:21 (01:21 UTC)

Väderprognos

Denna rapport gjordes för 8 timmar och 21 minuter sedan, klockan 17:00 UTC
Prognos gäller från 22 kl. 18 UTC till 23 kl. 24 UTC
Vind 8 kt från väst
Sikt 10 km eller mer
Få moln på en höjd av 1500 ft
Spridda moln på en höjd av 11000 ft
Sannolikhet 30% :
Temporärt
från 22 kl. 24 UTC till 23 kl. 04 UTC
Sikt 10 km eller mer
Inga moln under 1 500 m eller inga cumulonimbus

TAF: GUCY 221700Z 2218/2324 27008KT 9999 FEW015 SCT110 PROB30 TEMPO 2224/2304 CAVOK

Aktuella väderrapporter och prognoser från 4000 flygplatser (METAR- och TAF-rapporter).

De tillgängliga stationerna syns som gula och röda prickar på kartan.

För musen över prickarna för att se namnen på stationerna.

Klicka sedan för att få väderrapporter och prognoser.

För att ändra kartan: Klicka på de gröna knapparna med ett svart kors på för att zooma in; den gröna knappen med ett streck på för att zooma ut; eller på de gröna pilarna för angränsande kartor.


METAR-TAF: